sensor_id;sensor_type;location;lat;lon;timestamp;pressure;altitude;pressure_sealevel;temperature;humidity
66430;BME280;53242;51.694;10.006;2023-02-24T00:00:15;99255.38;;;5.93;85.90
66430;BME280;53242;51.694;10.006;2023-02-24T00:02:53;99260.31;;;5.88;86.04
66430;BME280;53242;51.694;10.006;2023-02-24T00:05:15;99255.56;;;5.83;86.22
66430;BME280;53242;51.694;10.006;2023-02-24T00:07:37;99249.69;;;5.81;85.83
66430;BME280;53242;51.694;10.006;2023-02-24T00:10:00;99250.41;;;5.58;86.27
66430;BME280;53242;51.694;10.006;2023-02-24T00:12:23;99246.50;;;5.54;86.33
66430;BME280;53242;51.694;10.006;2023-02-24T00:14:46;99235.38;;;5.52;85.81
66430;BME280;53242;51.694;10.006;2023-02-24T00:17:09;99236.28;;;5.76;85.55
66430;BME280;53242;51.694;10.006;2023-02-24T00:19:35;99234.19;;;5.71;85.21
66430;BME280;53242;51.694;10.006;2023-02-24T00:22:02;99232.03;;;5.75;84.89
66430;BME280;53242;51.694;10.006;2023-02-24T00:24:27;99233.31;;;5.79;84.84
66430;BME280;53242;51.694;10.006;2023-02-24T00:26:57;99228.56;;;5.83;84.83
66430;BME280;53242;51.694;10.006;2023-02-24T00:29:23;99225.91;;;5.91;84.68
66430;BME280;53242;51.694;10.006;2023-02-24T00:31:49;99217.59;;;5.87;85.04
66430;BME280;53242;51.694;10.006;2023-02-24T00:34:13;99226.75;;;5.91;84.47
66430;BME280;53242;51.694;10.006;2023-02-24T00:36:37;99227.09;;;5.80;85.07
66430;BME280;53242;51.694;10.006;2023-02-24T00:39:05;99230.72;;;5.79;85.06
66430;BME280;53242;51.694;10.006;2023-02-24T00:41:31;99223.91;;;6.01;84.24
66430;BME280;53242;51.694;10.006;2023-02-24T00:43:55;99215.72;;;5.96;84.50
66430;BME280;53242;51.694;10.006;2023-02-24T00:46:20;99218.34;;;5.96;84.56
66430;BME280;53242;51.694;10.006;2023-02-24T00:48:43;99224.63;;;5.87;84.62
66430;BME280;53242;51.694;10.006;2023-02-24T00:51:08;99210.25;;;5.83;84.66
66430;BME280;53242;51.694;10.006;2023-02-24T00:53:31;99206.25;;;5.55;84.81
66430;BME280;53242;51.694;10.006;2023-02-24T00:55:59;99197.50;;;5.71;84.03
66430;BME280;53242;51.694;10.006;2023-02-24T00:58:21;99194.94;;;5.63;84.51
66430;BME280;53242;51.694;10.006;2023-02-24T01:00:44;99196.09;;;5.60;84.52
66430;BME280;53242;51.694;10.006;2023-02-24T01:03:08;99193.78;;;5.66;84.26
66430;BME280;53242;51.694;10.006;2023-02-24T01:05:34;99191.34;;;5.64;83.78
66430;BME280;53242;51.694;10.006;2023-02-24T01:07:57;99189.91;;;5.53;84.18
66430;BME280;53242;51.694;10.006;2023-02-24T01:10:19;99186.50;;;5.84;83.49
66430;BME280;53242;51.694;10.006;2023-02-24T01:12:44;99185.88;;;5.82;82.81
66430;BME280;53242;51.694;10.006;2023-02-24T01:15:20;99180.88;;;5.64;83.44
66430;BME280;53242;51.694;10.006;2023-02-24T01:17:43;99174.94;;;5.70;83.15
66430;BME280;53242;51.694;10.006;2023-02-24T01:20:10;99176.56;;;5.71;83.27
66430;BME280;53242;51.694;10.006;2023-02-24T01:22:44;99180.72;;;5.57;83.96
66430;BME280;53242;51.694;10.006;2023-02-24T01:25:06;99177.19;;;5.82;82.82
66430;BME280;53242;51.694;10.006;2023-02-24T01:27:30;99165.91;;;5.81;83.05
66430;BME280;53242;51.694;10.006;2023-02-24T01:29:52;99164.63;;;5.77;83.48
66430;BME280;53242;51.694;10.006;2023-02-24T01:32:19;99166.16;;;6.03;82.42
66430;BME280;53242;51.694;10.006;2023-02-24T01:34:41;99158.78;;;5.98;81.32
66430;BME280;53242;51.694;10.006;2023-02-24T01:37:04;99158.84;;;5.82;82.56
66430;BME280;53242;51.694;10.006;2023-02-24T01:39:26;99158.63;;;5.91;82.84
66430;BME280;53242;51.694;10.006;2023-02-24T01:41:49;99163.19;;;5.98;82.43
66430;BME280;53242;51.694;10.006;2023-02-24T01:46:46;99151.84;;;5.74;82.54
66430;BME280;53242;51.694;10.006;2023-02-24T01:49:18;99139.91;;;5.71;82.64
66430;BME280;53242;51.694;10.006;2023-02-24T01:51:46;99143.38;;;5.72;82.15
66430;BME280;53242;51.694;10.006;2023-02-24T01:54:13;99135.22;;;5.67;82.51
66430;BME280;53242;51.694;10.006;2023-02-24T01:56:37;99132.94;;;5.87;82.01
66430;BME280;53242;51.694;10.006;2023-02-24T01:59:00;99132.34;;;5.76;81.94
66430;BME280;53242;51.694;10.006;2023-02-24T02:01:24;99125.47;;;5.84;81.57
66430;BME280;53242;51.694;10.006;2023-02-24T02:03:46;99126.91;;;5.86;81.15
66430;BME280;53242;51.694;10.006;2023-02-24T02:06:11;99127.94;;;5.77;81.22
66430;BME280;53242;51.694;10.006;2023-02-24T02:08:36;99141.06;;;5.69;81.13
66430;BME280;53242;51.694;10.006;2023-02-24T02:11:01;99129.66;;;5.62;81.18
66430;BME280;53242;51.694;10.006;2023-02-24T02:13:28;99126.44;;;5.51;81.48
66430;BME280;53242;51.694;10.006;2023-02-24T02:16:02;99119.41;;;5.52;81.49
66430;BME280;53242;51.694;10.006;2023-02-24T02:18:51;99124.63;;;5.52;81.03
66430;BME280;53242;51.694;10.006;2023-02-24T02:24:01;99123.66;;;5.53;81.94
66430;BME280;53242;51.694;10.006;2023-02-24T02:26:51;99118.91;;;5.48;81.51
66430;BME280;53242;51.694;10.006;2023-02-24T02:32:29;99118.19;;;5.31;82.12
66430;BME280;53242;51.694;10.006;2023-02-24T02:35:09;99117.50;;;5.37;81.72
66430;BME280;53242;51.694;10.006;2023-02-24T02:40:09;99098.34;;;5.37;82.30
66430;BME280;53242;51.694;10.006;2023-02-24T02:43:00;99104.28;;;5.31;82.51
66430;BME280;53242;51.694;10.006;2023-02-24T02:45:48;99094.94;;;5.36;82.37
66430;BME280;53242;51.694;10.006;2023-02-24T02:48:27;99091.19;;;5.31;82.42
66430;BME280;53242;51.694;10.006;2023-02-24T02:51:10;99090.03;;;5.33;82.14
66430;BME280;53242;51.694;10.006;2023-02-24T02:53:47;99081.72;;;5.21;82.68
66430;BME280;53242;51.694;10.006;2023-02-24T02:56:18;99069.97;;;5.17;82.73
66430;BME280;53242;51.694;10.006;2023-02-24T02:58:47;99071.13;;;5.15;82.62
66430;BME280;53242;51.694;10.006;2023-02-24T03:01:15;99062.31;;;5.07;82.92
66430;BME280;53242;51.694;10.006;2023-02-24T03:03:45;99058.91;;;5.07;83.20
66430;BME280;53242;51.694;10.006;2023-02-24T03:06:22;99066.44;;;5.02;82.59
66430;BME280;53242;51.694;10.006;2023-02-24T03:08:52;99064.00;;;5.00;83.07
66430;BME280;53242;51.694;10.006;2023-02-24T03:11:20;99066.75;;;5.07;81.70
66430;BME280;53242;51.694;10.006;2023-02-24T03:13:45;99055.53;;;4.90;82.83
66430;BME280;53242;51.694;10.006;2023-02-24T03:16:11;99059.78;;;4.83;82.10
66430;BME280;53242;51.694;10.006;2023-02-24T03:18:37;99057.22;;;4.74;82.49
66430;BME280;53242;51.694;10.006;2023-02-24T03:21:20;99050.56;;;5.03;82.08
66430;BME280;53242;51.694;10.006;2023-02-24T03:23:48;99040.47;;;5.00;81.44
66430;BME280;53242;51.694;10.006;2023-02-24T03:26:14;99039.50;;;5.01;81.67
66430;BME280;53242;51.694;10.006;2023-02-24T03:31:30;99023.25;;;5.14;81.86
66430;BME280;53242;51.694;10.006;2023-02-24T03:34:00;99020.22;;;5.25;80.78
66430;BME280;53242;51.694;10.006;2023-02-24T03:36:27;99014.38;;;5.23;80.80
66430;BME280;53242;51.694;10.006;2023-02-24T03:38:50;99020.06;;;5.27;80.95
66430;BME280;53242;51.694;10.006;2023-02-24T03:41:13;99023.84;;;5.24;81.06
66430;BME280;53242;51.694;10.006;2023-02-24T03:43:44;99021.72;;;5.28;80.81
66430;BME280;53242;51.694;10.006;2023-02-24T03:46:08;99017.06;;;5.07;81.50
66430;BME280;53242;51.694;10.006;2023-02-24T03:48:31;99020.28;;;5.17;80.88
66430;BME280;53242;51.694;10.006;2023-02-24T03:50:54;99019.59;;;5.23;80.81
66430;BME280;53242;51.694;10.006;2023-02-24T03:53:48;99015.47;;;4.98;81.46
66430;BME280;53242;51.694;10.006;2023-02-24T03:56:37;99017.91;;;4.99;81.13
66430;BME280;53242;51.694;10.006;2023-02-24T04:01:53;99020.72;;;4.89;79.98
66430;BME280;53242;51.694;10.006;2023-02-24T04:05:03;99008.53;;;5.13;79.88
66430;BME280;53242;51.694;10.006;2023-02-24T04:08:04;98998.88;;;5.14;79.70
66430;BME280;53242;51.694;10.006;2023-02-24T04:10:47;99007.69;;;5.13;79.93
66430;BME280;53242;51.694;10.006;2023-02-24T04:15:47;99002.66;;;5.11;79.71
66430;BME280;53242;51.694;10.006;2023-02-24T04:18:15;99000.38;;;5.08;80.09
66430;BME280;53242;51.694;10.006;2023-02-24T04:20:41;98998.09;;;5.05;79.99
66430;BME280;53242;51.694;10.006;2023-02-24T04:23:10;98994.41;;;4.91;80.78
66430;BME280;53242;51.694;10.006;2023-02-24T04:25:34;98995.94;;;5.08;80.33
66430;BME280;53242;51.694;10.006;2023-02-24T04:27:59;98990.59;;;5.02;80.40
66430;BME280;53242;51.694;10.006;2023-02-24T04:30:26;98986.75;;;5.21;79.91
66430;BME280;53242;51.694;10.006;2023-02-24T04:32:51;98984.34;;;5.11;80.14
66430;BME280;53242;51.694;10.006;2023-02-24T04:35:17;98976.47;;;5.11;79.52
66430;BME280;53242;51.694;10.006;2023-02-24T04:37:44;98982.44;;;4.97;80.32
66430;BME280;53242;51.694;10.006;2023-02-24T04:40:07;98978.47;;;5.09;79.66
66430;BME280;53242;51.694;10.006;2023-02-24T04:42:33;98978.03;;;4.97;79.93
66430;BME280;53242;51.694;10.006;2023-02-24T04:44:55;98976.47;;;4.80;79.81
66430;BME280;53242;51.694;10.006;2023-02-24T04:47:19;98967.31;;;4.84;80.57
66430;BME280;53242;51.694;10.006;2023-02-24T04:49:42;98974.59;;;4.97;79.45
66430;BME280;53242;51.694;10.006;2023-02-24T04:52:07;98969.69;;;5.02;79.47
66430;BME280;53242;51.694;10.006;2023-02-24T04:54:30;98961.94;;;5.08;79.01
66430;BME280;53242;51.694;10.006;2023-02-24T04:56:52;98958.34;;;5.09;79.26
66430;BME280;53242;51.694;10.006;2023-02-24T04:59:19;98955.75;;;5.09;78.80
66430;BME280;53242;51.694;10.006;2023-02-24T05:01:42;98956.22;;;5.13;78.79
66430;BME280;53242;51.694;10.006;2023-02-24T05:04:05;98957.31;;;5.19;78.50
66430;BME280;53242;51.694;10.006;2023-02-24T05:06:28;98953.94;;;4.78;80.04
66430;BME280;53242;51.694;10.006;2023-02-24T05:08:50;98945.63;;;5.06;78.87
66430;BME280;53242;51.694;10.006;2023-02-24T05:11:14;98943.94;;;5.14;79.04
66430;BME280;53242;51.694;10.006;2023-02-24T05:13:37;98947.66;;;4.88;79.47
66430;BME280;53242;51.694;10.006;2023-02-24T05:16:07;98949.91;;;4.68;80.30
66430;BME280;53242;51.694;10.006;2023-02-24T05:18:29;98947.44;;;4.66;79.97
66430;BME280;53242;51.694;10.006;2023-02-24T05:21:06;98950.13;;;4.50;80.39
66430;BME280;53242;51.694;10.006;2023-02-24T05:23:47;98943.16;;;4.73;80.11
66430;BME280;53242;51.694;10.006;2023-02-24T05:26:15;98941.41;;;4.66;79.95
66430;BME280;53242;51.694;10.006;2023-02-24T05:28:39;98937.38;;;4.86;80.04
66430;BME280;53242;51.694;10.006;2023-02-24T05:31:10;98933.19;;;4.77;79.88
66430;BME280;53242;51.694;10.006;2023-02-24T05:33:37;98932.03;;;4.80;79.55
66430;BME280;53242;51.694;10.006;2023-02-24T05:36:08;98924.63;;;4.91;79.43
66430;BME280;53242;51.694;10.006;2023-02-24T05:38:31;98926.69;;;4.73;79.69
66430;BME280;53242;51.694;10.006;2023-02-24T05:41:02;98922.56;;;4.39;80.07
66430;BME280;53242;51.694;10.006;2023-02-24T05:43:25;98925.03;;;4.32;79.72
66430;BME280;53242;51.694;10.006;2023-02-24T05:45:48;98920.63;;;4.24;79.93
66430;BME280;53242;51.694;10.006;2023-02-24T05:48:11;98921.28;;;4.26;79.66
66430;BME280;53242;51.694;10.006;2023-02-24T05:50:36;98917.16;;;4.40;79.70
66430;BME280;53242;51.694;10.006;2023-02-24T05:53:00;98910.63;;;4.36;79.75
66430;BME280;53242;51.694;10.006;2023-02-24T05:55:24;98908.03;;;4.36;79.59
66430;BME280;53242;51.694;10.006;2023-02-24T05:57:46;98910.69;;;4.28;79.07
66430;BME280;53242;51.694;10.006;2023-02-24T06:00:12;98909.56;;;4.14;80.12
66430;BME280;53242;51.694;10.006;2023-02-24T06:02:38;98900.22;;;4.20;79.69
66430;BME280;53242;51.694;10.006;2023-02-24T06:05:04;98902.22;;;4.18;80.41
66430;BME280;53242;51.694;10.006;2023-02-24T06:07:30;98897.81;;;4.02;81.01
66430;BME280;53242;51.694;10.006;2023-02-24T06:09:57;98895.44;;;4.40;79.99
66430;BME280;53242;51.694;10.006;2023-02-24T06:12:22;98898.97;;;3.99;80.89
66430;BME280;53242;51.694;10.006;2023-02-24T06:14:45;98891.66;;;3.94;81.23
66430;BME280;53242;51.694;10.006;2023-02-24T06:17:08;98896.84;;;4.11;81.45
66430;BME280;53242;51.694;10.006;2023-02-24T06:19:30;98890.00;;;4.10;81.04
66430;BME280;53242;51.694;10.006;2023-02-24T06:21:56;98889.03;;;3.86;82.01
66430;BME280;53242;51.694;10.006;2023-02-24T06:24:22;98878.94;;;4.00;82.11
66430;BME280;53242;51.694;10.006;2023-02-24T06:26:45;98887.38;;;4.10;81.77
66430;BME280;53242;51.694;10.006;2023-02-24T06:29:12;98886.88;;;4.15;81.72
66430;BME280;53242;51.694;10.006;2023-02-24T06:31:35;98870.66;;;4.36;81.33
66430;BME280;53242;51.694;10.006;2023-02-24T06:33:57;98874.72;;;4.30;81.18
66430;BME280;53242;51.694;10.006;2023-02-24T06:36:20;98874.47;;;4.17;81.55
66430;BME280;53242;51.694;10.006;2023-02-24T06:38:43;98870.91;;;4.01;81.89
66430;BME280;53242;51.694;10.006;2023-02-24T06:41:05;98865.91;;;4.31;81.64
66430;BME280;53242;51.694;10.006;2023-02-24T06:43:32;98861.44;;;4.00;82.24
66430;BME280;53242;51.694;10.006;2023-02-24T06:45:54;98861.44;;;4.08;81.93
66430;BME280;53242;51.694;10.006;2023-02-24T06:48:16;98870.97;;;4.33;81.85
66430;BME280;53242;51.694;10.006;2023-02-24T06:50:39;98865.13;;;4.22;81.79
66430;BME280;53242;51.694;10.006;2023-02-24T06:53:01;98859.03;;;4.38;81.11
66430;BME280;53242;51.694;10.006;2023-02-24T06:55:24;98860.50;;;4.33;81.25
66430;BME280;53242;51.694;10.006;2023-02-24T06:57:46;98856.91;;;4.42;80.70
66430;BME280;53242;51.694;10.006;2023-02-24T07:00:09;98851.47;;;4.52;80.64
66430;BME280;53242;51.694;10.006;2023-02-24T07:02:38;98855.81;;;4.59;80.54
66430;BME280;53242;51.694;10.006;2023-02-24T07:05:00;98851.94;;;4.55;80.49
66430;BME280;53242;51.694;10.006;2023-02-24T07:07:23;98844.31;;;4.77;80.47
66430;BME280;53242;51.694;10.006;2023-02-24T07:09:45;98847.31;;;4.66;80.04
66430;BME280;53242;51.694;10.006;2023-02-24T07:12:07;98840.28;;;4.66;80.29
66430;BME280;53242;51.694;10.006;2023-02-24T07:14:32;98836.72;;;4.59;80.53
66430;BME280;53242;51.694;10.006;2023-02-24T07:16:54;98846.22;;;4.52;80.85
66430;BME280;53242;51.694;10.006;2023-02-24T07:19:21;98830.97;;;4.64;80.58
66430;BME280;53242;51.694;10.006;2023-02-24T07:21:44;98828.31;;;4.72;80.76
66430;BME280;53242;51.694;10.006;2023-02-24T07:24:15;98832.59;;;4.65;81.19
66430;BME280;53242;51.694;10.006;2023-02-24T07:26:45;98826.56;;;4.64;81.26
66430;BME280;53242;51.694;10.006;2023-02-24T07:29:12;98821.44;;;4.48;81.67
66430;BME280;53242;51.694;10.006;2023-02-24T07:31:35;98816.03;;;4.49;81.55
66430;BME280;53242;51.694;10.006;2023-02-24T07:33:58;98813.25;;;4.51;81.27
66430;BME280;53242;51.694;10.006;2023-02-24T07:36:23;98808.94;;;4.35;81.59
66430;BME280;53242;51.694;10.006;2023-02-24T07:38:45;98806.78;;;4.38;80.71
66430;BME280;53242;51.694;10.006;2023-02-24T07:41:10;98797.00;;;4.64;80.29
66430;BME280;53242;51.694;10.006;2023-02-24T07:43:40;98802.81;;;4.74;80.62
66430;BME280;53242;51.694;10.006;2023-02-24T07:46:11;98791.72;;;4.72;80.46
66430;BME280;53242;51.694;10.006;2023-02-24T07:48:34;98785.91;;;4.61;80.53
66430;BME280;53242;51.694;10.006;2023-02-24T07:50:59;98781.72;;;4.52;80.55
66430;BME280;53242;51.694;10.006;2023-02-24T07:53:22;98784.19;;;4.45;80.39
66430;BME280;53242;51.694;10.006;2023-02-24T07:55:44;98775.19;;;4.48;80.26
66430;BME280;53242;51.694;10.006;2023-02-24T07:58:08;98781.34;;;4.32;80.09
66430;BME280;53242;51.694;10.006;2023-02-24T08:00:31;98773.63;;;4.39;78.75
66430;BME280;53242;51.694;10.006;2023-02-24T08:03:12;98765.97;;;4.37;77.91
66430;BME280;53242;51.694;10.006;2023-02-24T08:05:34;98768.63;;;4.29;77.75
66430;BME280;53242;51.694;10.006;2023-02-24T08:07:57;98769.03;;;4.18;78.04
66430;BME280;53242;51.694;10.006;2023-02-24T08:10:20;98767.31;;;4.33;77.27
66430;BME280;53242;51.694;10.006;2023-02-24T08:12:45;98761.97;;;4.18;77.54
66430;BME280;53242;51.694;10.006;2023-02-24T08:15:09;98763.16;;;4.47;76.24
66430;BME280;53242;51.694;10.006;2023-02-24T08:17:38;98750.09;;;4.47;75.48
66430;BME280;53242;51.694;10.006;2023-02-24T08:20:01;98748.19;;;4.56;76.00
66430;BME280;53242;51.694;10.006;2023-02-24T08:22:36;98750.66;;;4.57;76.11
66430;BME280;53242;51.694;10.006;2023-02-24T08:24:58;98741.38;;;4.55;76.53
66430;BME280;53242;51.694;10.006;2023-02-24T08:27:28;98745.00;;;4.45;76.59
66430;BME280;53242;51.694;10.006;2023-02-24T08:29:55;98744.03;;;4.47;76.72
66430;BME280;53242;51.694;10.006;2023-02-24T08:32:21;98733.81;;;4.37;77.00
66430;BME280;53242;51.694;10.006;2023-02-24T08:34:46;98722.06;;;4.56;76.54
66430;BME280;53242;51.694;10.006;2023-02-24T08:37:10;98720.81;;;4.52;76.39
66430;BME280;53242;51.694;10.006;2023-02-24T08:39:36;98719.41;;;4.41;76.05
66430;BME280;53242;51.694;10.006;2023-02-24T08:41:59;98715.16;;;4.40;76.01
66430;BME280;53242;51.694;10.006;2023-02-24T08:44:21;98711.97;;;4.53;75.61
66430;BME280;53242;51.694;10.006;2023-02-24T08:46:44;98706.00;;;4.44;75.04
66430;BME280;53242;51.694;10.006;2023-02-24T08:49:07;98700.16;;;4.42;75.31
66430;BME280;53242;51.694;10.006;2023-02-24T08:51:34;98695.13;;;4.55;75.47
66430;BME280;53242;51.694;10.006;2023-02-24T08:54:00;98687.22;;;4.64;75.10
66430;BME280;53242;51.694;10.006;2023-02-24T08:56:26;98685.78;;;4.61;75.22
66430;BME280;53242;51.694;10.006;2023-02-24T08:59:09;98678.69;;;4.47;74.60
66430;BME280;53242;51.694;10.006;2023-02-24T09:01:50;98675.28;;;4.46;74.97
66430;BME280;53242;51.694;10.006;2023-02-24T09:04:15;98674.53;;;4.60;74.66
66430;BME280;53242;51.694;10.006;2023-02-24T09:06:42;98677.59;;;4.64;74.48
66430;BME280;53242;51.694;10.006;2023-02-24T09:09:05;98666.03;;;4.58;75.02
66430;BME280;53242;51.694;10.006;2023-02-24T09:11:40;98671.50;;;4.49;75.36
66430;BME280;53242;51.694;10.006;2023-02-24T09:14:05;98668.50;;;4.37;75.18
66430;BME280;53242;51.694;10.006;2023-02-24T09:16:28;98659.22;;;4.34;75.32
66430;BME280;53242;51.694;10.006;2023-02-24T09:18:51;98659.78;;;4.44;74.98
66430;BME280;53242;51.694;10.006;2023-02-24T09:21:32;98656.13;;;4.31;74.38
66430;BME280;53242;51.694;10.006;2023-02-24T09:24:09;98658.28;;;4.27;74.94
66430;BME280;53242;51.694;10.006;2023-02-24T09:26:33;98660.72;;;4.28;74.42
66430;BME280;53242;51.694;10.006;2023-02-24T09:29:04;98655.78;;;4.34;74.72
66430;BME280;53242;51.694;10.006;2023-02-24T09:31:46;98646.25;;;4.41;74.63
66430;BME280;53242;51.694;10.006;2023-02-24T09:34:16;98649.09;;;4.31;74.61
66430;BME280;53242;51.694;10.006;2023-02-24T09:36:40;98634.88;;;4.34;74.45
66430;BME280;53242;51.694;10.006;2023-02-24T09:39:07;98631.97;;;4.28;74.76
66430;BME280;53242;51.694;10.006;2023-02-24T09:41:38;98639.47;;;4.32;73.83
66430;BME280;53242;51.694;10.006;2023-02-24T09:47:11;98637.78;;;4.16;73.67
66430;BME280;53242;51.694;10.006;2023-02-24T09:49:52;98636.34;;;4.13;73.35
66430;BME280;53242;51.694;10.006;2023-02-24T09:52:17;98633.03;;;4.19;73.58
66430;BME280;53242;51.694;10.006;2023-02-24T09:54:40;98624.22;;;4.20;73.65
66430;BME280;53242;51.694;10.006;2023-02-24T09:57:13;98621.06;;;4.25;73.02
66430;BME280;53242;51.694;10.006;2023-02-24T09:59:50;98610.03;;;4.38;72.67
66430;BME280;53242;51.694;10.006;2023-02-24T10:03:11;98607.13;;;4.33;72.65
66430;BME280;53242;51.694;10.006;2023-02-24T10:05:50;98612.00;;;4.36;72.46
66430;BME280;53242;51.694;10.006;2023-02-24T10:08:27;98613.88;;;4.27;72.51
66430;BME280;53242;51.694;10.006;2023-02-24T10:10:52;98604.47;;;4.41;71.51
66430;BME280;53242;51.694;10.006;2023-02-24T10:13:30;98599.91;;;4.58;71.08
66430;BME280;53242;51.694;10.006;2023-02-24T10:15:53;98593.03;;;4.42;70.67
66430;BME280;53242;51.694;10.006;2023-02-24T10:18:29;98584.13;;;4.51;70.63
66430;BME280;53242;51.694;10.006;2023-02-24T10:24:40;98581.09;;;4.24;70.47
66430;BME280;53242;51.694;10.006;2023-02-24T10:27:14;98577.59;;;4.32;71.54
66430;BME280;53242;51.694;10.006;2023-02-24T10:32:58;98566.09;;;4.56;71.06
66430;BME280;53242;51.694;10.006;2023-02-24T10:35:25;98561.69;;;4.57;71.27
66430;BME280;53242;51.694;10.006;2023-02-24T10:37:47;98561.69;;;4.57;71.67
66430;BME280;53242;51.694;10.006;2023-02-24T10:40:11;98565.94;;;4.20;72.62
66430;BME280;53242;51.694;10.006;2023-02-24T10:42:39;98561.53;;;4.20;73.15
66430;BME280;53242;51.694;10.006;2023-02-24T10:45:11;98552.13;;;4.34;73.20
66430;BME280;53242;51.694;10.006;2023-02-24T10:47:39;98553.06;;;3.95;74.92
66430;BME280;53242;51.694;10.006;2023-02-24T10:50:05;98554.69;;;3.96;75.21
66430;BME280;53242;51.694;10.006;2023-02-24T10:52:39;98552.19;;;3.79;76.00
66430;BME280;53242;51.694;10.006;2023-02-24T10:55:41;98550.28;;;3.73;77.13
66430;BME280;53242;51.694;10.006;2023-02-24T10:58:06;98537.78;;;3.92;77.18
66430;BME280;53242;51.694;10.006;2023-02-24T11:00:28;98538.47;;;3.86;77.71
66430;BME280;53242;51.694;10.006;2023-02-24T11:03:12;98531.59;;;3.61;78.74
66430;BME280;53242;51.694;10.006;2023-02-24T11:05:46;98527.22;;;3.85;78.71
66430;BME280;53242;51.694;10.006;2023-02-24T11:08:34;98521.56;;;3.73;79.11
66430;BME280;53242;51.694;10.006;2023-02-24T11:11:14;98509.69;;;3.94;79.34
66430;BME280;53242;51.694;10.006;2023-02-24T11:14:15;98507.72;;;3.73;80.41
66430;BME280;53242;51.694;10.006;2023-02-24T11:16:57;98505.41;;;3.78;81.40
66430;BME280;53242;51.694;10.006;2023-02-24T11:19:57;98494.03;;;3.71;81.14
66430;BME280;53242;51.694;10.006;2023-02-24T11:22:24;98487.28;;;4.00;80.75
66430;BME280;53242;51.694;10.006;2023-02-24T11:24:49;98482.63;;;3.72;81.36
66430;BME280;53242;51.694;10.006;2023-02-24T11:27:15;98471.16;;;3.96;81.36
66430;BME280;53242;51.694;10.006;2023-02-24T11:38:58;98457.06;;;3.67;83.81
66430;BME280;53242;51.694;10.006;2023-02-24T11:41:26;98446.66;;;3.59;83.92
66430;BME280;53242;51.694;10.006;2023-02-24T11:43:56;98436.78;;;3.54;84.83
66430;BME280;53242;51.694;10.006;2023-02-24T11:46:44;98438.78;;;3.67;84.55
66430;BME280;53242;51.694;10.006;2023-02-24T11:49:24;98435.16;;;3.53;84.52
66430;BME280;53242;51.694;10.006;2023-02-24T11:51:48;98428.94;;;3.54;84.35
66430;BME280;53242;51.694;10.006;2023-02-24T11:54:14;98418.53;;;3.69;84.30
66430;BME280;53242;51.694;10.006;2023-02-24T11:56:43;98411.34;;;3.71;84.12
66430;BME280;53242;51.694;10.006;2023-02-24T11:59:39;98404.75;;;3.60;84.94
66430;BME280;53242;51.694;10.006;2023-02-24T12:02:20;98399.53;;;3.60;84.36
66430;BME280;53242;51.694;10.006;2023-02-24T12:05:12;98393.03;;;3.56;84.95
66430;BME280;53242;51.694;10.006;2023-02-24T12:07:37;98393.13;;;3.48;84.87
66430;BME280;53242;51.694;10.006;2023-02-24T12:10:24;98383.53;;;3.64;84.10
66430;BME280;53242;51.694;10.006;2023-02-24T12:12:58;98377.28;;;3.50;84.79
66430;BME280;53242;51.694;10.006;2023-02-24T12:15:27;98375.66;;;3.49;84.77
66430;BME280;53242;51.694;10.006;2023-02-24T12:18:15;98371.56;;;3.54;84.98
66430;BME280;53242;51.694;10.006;2023-02-24T12:20:47;98362.94;;;3.69;84.73
66430;BME280;53242;51.694;10.006;2023-02-24T12:23:27;98362.13;;;3.68;84.62
66430;BME280;53242;51.694;10.006;2023-02-24T12:26:23;98353.66;;;3.81;84.56
66430;BME280;53242;51.694;10.006;2023-02-24T12:32:01;98351.59;;;3.61;84.66
66430;BME280;53242;51.694;10.006;2023-02-24T12:34:39;98353.03;;;3.64;84.83
66430;BME280;53242;51.694;10.006;2023-02-24T12:50:26;98312.03;;;3.35;85.92
66430;BME280;53242;51.694;10.006;2023-02-24T12:52:56;98317.19;;;3.43;85.70
66430;BME280;53242;51.694;10.006;2023-02-24T12:58:14;98312.88;;;3.35;85.77
66430;BME280;53242;51.694;10.006;2023-02-24T13:04:10;98295.06;;;3.39;86.35
66430;BME280;53242;51.694;10.006;2023-02-24T13:08:53;98284.00;;;3.37;85.97
66430;BME280;53242;51.694;10.006;2023-02-24T13:14:02;98270.31;;;3.35;86.40
66430;BME280;53242;51.694;10.006;2023-02-24T13:16:29;98270.69;;;3.32;87.06
66430;BME280;53242;51.694;10.006;2023-02-24T13:18:51;98258.91;;;3.21;87.29
66430;BME280;53242;51.694;10.006;2023-02-24T13:21:24;98259.69;;;3.21;87.04
66430;BME280;53242;51.694;10.006;2023-02-24T13:23:55;98260.78;;;3.27;87.18
66430;BME280;53242;51.694;10.006;2023-02-24T13:26:26;98259.22;;;3.18;87.18
66430;BME280;53242;51.694;10.006;2023-02-24T13:29:01;98259.28;;;3.33;87.08
66430;BME280;53242;51.694;10.006;2023-02-24T13:31:24;98253.13;;;3.25;87.04
66430;BME280;53242;51.694;10.006;2023-02-24T13:33:47;98259.78;;;3.13;87.37
66430;BME280;53242;51.694;10.006;2023-02-24T13:36:22;98247.22;;;3.32;86.67
66430;BME280;53242;51.694;10.006;2023-02-24T13:38:47;98244.16;;;3.28;86.48
66430;BME280;53242;51.694;10.006;2023-02-24T13:46:21;98230.66;;;3.39;87.36
66430;BME280;53242;51.694;10.006;2023-02-24T13:51:56;98229.94;;;3.31;87.42
66430;BME280;53242;51.694;10.006;2023-02-24T14:02:20;98213.28;;;3.02;88.52
66430;BME280;53242;51.694;10.006;2023-02-24T14:04:55;98207.09;;;3.03;88.24
66430;BME280;53242;51.694;10.006;2023-02-24T14:07:24;98203.75;;;3.09;88.37
66430;BME280;53242;51.694;10.006;2023-02-24T14:09:58;98203.75;;;3.09;88.67
66430;BME280;53242;51.694;10.006;2023-02-24T14:12:27;98204.03;;;2.99;89.04
66430;BME280;53242;51.694;10.006;2023-02-24T14:14:52;98204.34;;;2.96;89.07
66430;BME280;53242;51.694;10.006;2023-02-24T14:17:31;98192.00;;;3.13;88.93
66430;BME280;53242;51.694;10.006;2023-02-24T14:20:06;98189.88;;;2.93;88.94
66430;BME280;53242;51.694;10.006;2023-02-24T14:22:29;98189.28;;;3.06;89.01
66430;BME280;53242;51.694;10.006;2023-02-24T14:25:02;98181.41;;;3.15;89.19
66430;BME280;53242;51.694;10.006;2023-02-24T14:27:25;98180.94;;;3.11;88.41
66430;BME280;53242;51.694;10.006;2023-02-24T14:29:49;98179.59;;;3.15;88.97